sensor_id;sensor_type;location;lat;lon;timestamp;P1;durP1;ratioP1;P2;durP2;ratioP2
23594;SDS011;11975;47.674;9.472;2023-06-14T00:00:58;21.85;;;20.65;;
23594;SDS011;11975;47.674;9.472;2023-06-14T00:03:24;21.75;;;20.50;;
23594;SDS011;11975;47.674;9.472;2023-06-14T00:05:51;21.83;;;20.55;;
23594;SDS011;11975;47.674;9.472;2023-06-14T00:08:17;22.50;;;21.20;;
23594;SDS011;11975;47.674;9.472;2023-06-14T00:10:44;22.70;;;21.38;;
23594;SDS011;11975;47.674;9.472;2023-06-14T00:13:10;22.65;;;21.35;;
23594;SDS011;11975;47.674;9.472;2023-06-14T00:15:36;22.70;;;21.40;;
23594;SDS011;11975;47.674;9.472;2023-06-14T00:18:03;22.10;;;20.90;;
23594;SDS011;11975;47.674;9.472;2023-06-14T00:20:30;22.77;;;21.48;;
23594;SDS011;11975;47.674;9.472;2023-06-14T00:23:00;22.20;;;21.00;;
23594;SDS011;11975;47.674;9.472;2023-06-14T00:25:27;22.33;;;21.02;;
23594;SDS011;11975;47.674;9.472;2023-06-14T00:27:54;22.25;;;20.98;;
23594;SDS011;11975;47.674;9.472;2023-06-14T00:32:46;22.65;;;21.25;;
23594;SDS011;11975;47.674;9.472;2023-06-14T00:35:12;22.97;;;21.67;;
23594;SDS011;11975;47.674;9.472;2023-06-14T00:37:38;22.77;;;21.48;;
23594;SDS011;11975;47.674;9.472;2023-06-14T00:40:05;22.48;;;21.20;;
23594;SDS011;11975;47.674;9.472;2023-06-14T00:42:31;22.57;;;21.30;;
23594;SDS011;11975;47.674;9.472;2023-06-14T00:44:57;22.73;;;21.42;;
23594;SDS011;11975;47.674;9.472;2023-06-14T00:47:23;22.05;;;20.85;;
23594;SDS011;11975;47.674;9.472;2023-06-14T00:49:49;22.60;;;21.30;;
23594;SDS011;11975;47.674;9.472;2023-06-14T00:52:16;22.83;;;21.52;;
23594;SDS011;11975;47.674;9.472;2023-06-14T00:54:43;23.20;;;21.80;;
23594;SDS011;11975;47.674;9.472;2023-06-14T00:57:09;22.10;;;20.80;;
23594;SDS011;11975;47.674;9.472;2023-06-14T00:59:38;21.38;;;20.17;;
23594;SDS011;11975;47.674;9.472;2023-06-14T01:02:10;22.27;;;21.02;;
23594;SDS011;11975;47.674;9.472;2023-06-14T01:04:37;21.75;;;20.55;;
23594;SDS011;11975;47.674;9.472;2023-06-14T01:07:10;22.52;;;21.23;;
23594;SDS011;11975;47.674;9.472;2023-06-14T01:09:57;21.80;;;20.60;;
23594;SDS011;11975;47.674;9.472;2023-06-14T01:12:31;22.35;;;21.13;;
23594;SDS011;11975;47.674;9.472;2023-06-14T01:14:59;22.67;;;21.38;;
23594;SDS011;11975;47.674;9.472;2023-06-14T01:17:26;22.33;;;21.08;;
23594;SDS011;11975;47.674;9.472;2023-06-14T01:19:52;22.00;;;20.80;;
23594;SDS011;11975;47.674;9.472;2023-06-14T01:22:26;27.40;;;21.60;;
23594;SDS011;11975;47.674;9.472;2023-06-14T01:24:52;22.25;;;21.05;;
23594;SDS011;11975;47.674;9.472;2023-06-14T01:27:23;23.13;;;21.73;;
23594;SDS011;11975;47.674;9.472;2023-06-14T01:29:51;22.08;;;20.88;;
23594;SDS011;11975;47.674;9.472;2023-06-14T01:34:43;22.07;;;20.77;;
23594;SDS011;11975;47.674;9.472;2023-06-14T01:37:10;21.60;;;20.40;;
23594;SDS011;11975;47.674;9.472;2023-06-14T01:39:37;21.58;;;20.38;;
23594;SDS011;11975;47.674;9.472;2023-06-14T01:42:03;22.02;;;20.73;;
23594;SDS011;11975;47.674;9.472;2023-06-14T01:44:30;22.50;;;21.20;;
23594;SDS011;11975;47.674;9.472;2023-06-14T01:46:56;22.23;;;20.92;;
23594;SDS011;11975;47.674;9.472;2023-06-14T01:49:22;22.45;;;21.23;;
23594;SDS011;11975;47.674;9.472;2023-06-14T01:51:48;21.80;;;20.60;;
23594;SDS011;11975;47.674;9.472;2023-06-14T01:54:14;22.00;;;20.70;;
23594;SDS011;11975;47.674;9.472;2023-06-14T01:56:40;21.75;;;20.50;;
23594;SDS011;11975;47.674;9.472;2023-06-14T01:59:07;21.65;;;20.45;;
23594;SDS011;11975;47.674;9.472;2023-06-14T02:01:33;22.00;;;20.80;;
23594;SDS011;11975;47.674;9.472;2023-06-14T02:04:00;21.98;;;20.77;;
23594;SDS011;11975;47.674;9.472;2023-06-14T02:06:26;22.15;;;20.85;;
23594;SDS011;11975;47.674;9.472;2023-06-14T02:08:52;22.02;;;20.83;;
23594;SDS011;11975;47.674;9.472;2023-06-14T02:11:18;22.10;;;20.90;;
23594;SDS011;11975;47.674;9.472;2023-06-14T02:13:44;21.65;;;20.45;;
23594;SDS011;11975;47.674;9.472;2023-06-14T02:16:11;21.35;;;20.15;;
23594;SDS011;11975;47.674;9.472;2023-06-14T02:18:37;22.17;;;20.88;;
23594;SDS011;11975;47.674;9.472;2023-06-14T02:21:03;23.88;;;22.05;;
23594;SDS011;11975;47.674;9.472;2023-06-14T02:23:28;22.23;;;20.92;;
23594;SDS011;11975;47.674;9.472;2023-06-14T02:25:54;22.02;;;20.73;;
23594;SDS011;11975;47.674;9.472;2023-06-14T02:28:20;21.85;;;20.65;;
23594;SDS011;11975;47.674;9.472;2023-06-14T02:30:46;22.52;;;21.23;;
23594;SDS011;11975;47.674;9.472;2023-06-14T02:33:12;22.75;;;21.45;;
23594;SDS011;11975;47.674;9.472;2023-06-14T02:35:38;22.55;;;21.25;;
23594;SDS011;11975;47.674;9.472;2023-06-14T02:38:04;21.88;;;20.67;;
23594;SDS011;11975;47.674;9.472;2023-06-14T02:40:30;23.40;;;21.90;;
23594;SDS011;11975;47.674;9.472;2023-06-14T02:42:56;21.73;;;20.52;;
23594;SDS011;11975;47.674;9.472;2023-06-14T02:45:22;22.67;;;21.38;;
23594;SDS011;11975;47.674;9.472;2023-06-14T02:47:48;22.55;;;21.25;;
23594;SDS011;11975;47.674;9.472;2023-06-14T02:50:14;21.42;;;20.23;;
23594;SDS011;11975;47.674;9.472;2023-06-14T02:52:41;21.83;;;20.63;;
23594;SDS011;11975;47.674;9.472;2023-06-14T02:55:07;20.83;;;19.67;;
23594;SDS011;11975;47.674;9.472;2023-06-14T02:57:35;21.23;;;20.02;;
23594;SDS011;11975;47.674;9.472;2023-06-14T03:00:01;21.20;;;20.00;;
23594;SDS011;11975;47.674;9.472;2023-06-14T03:02:27;21.63;;;20.42;;
23594;SDS011;11975;47.674;9.472;2023-06-14T03:04:52;21.08;;;19.85;;
23594;SDS011;11975;47.674;9.472;2023-06-14T03:07:19;20.85;;;19.65;;
23594;SDS011;11975;47.674;9.472;2023-06-14T03:09:45;20.65;;;19.52;;
23594;SDS011;11975;47.674;9.472;2023-06-14T03:12:11;21.45;;;20.25;;
23594;SDS011;11975;47.674;9.472;2023-06-14T03:14:37;21.73;;;20.50;;
23594;SDS011;11975;47.674;9.472;2023-06-14T03:17:03;22.50;;;21.20;;
23594;SDS011;11975;47.674;9.472;2023-06-14T03:19:30;22.00;;;20.73;;
23594;SDS011;11975;47.674;9.472;2023-06-14T03:21:56;21.65;;;20.45;;
23594;SDS011;11975;47.674;9.472;2023-06-14T03:24:25;21.42;;;20.23;;
23594;SDS011;11975;47.674;9.472;2023-06-14T03:26:53;20.63;;;19.50;;
23594;SDS011;11975;47.674;9.472;2023-06-14T03:29:19;21.63;;;20.42;;
23594;SDS011;11975;47.674;9.472;2023-06-14T03:34:41;20.67;;;19.48;;
23594;SDS011;11975;47.674;9.472;2023-06-14T03:37:08;21.63;;;20.40;;
23594;SDS011;11975;47.674;9.472;2023-06-14T03:39:34;20.65;;;19.55;;
23594;SDS011;11975;47.674;9.472;2023-06-14T03:42:00;21.05;;;19.85;;
23594;SDS011;11975;47.674;9.472;2023-06-14T03:44:26;20.85;;;19.65;;
23594;SDS011;11975;47.674;9.472;2023-06-14T03:46:52;21.60;;;20.40;;
23594;SDS011;11975;47.674;9.472;2023-06-14T03:49:18;21.23;;;20.02;;
23594;SDS011;11975;47.674;9.472;2023-06-14T03:51:44;20.92;;;19.73;;
23594;SDS011;11975;47.674;9.472;2023-06-14T03:54:11;20.20;;;19.10;;
23594;SDS011;11975;47.674;9.472;2023-06-14T03:56:37;21.65;;;20.45;;
23594;SDS011;11975;47.674;9.472;2023-06-14T03:59:03;21.02;;;19.83;;
23594;SDS011;11975;47.674;9.472;2023-06-14T04:01:29;21.48;;;20.27;;
23594;SDS011;11975;47.674;9.472;2023-06-14T04:03:55;21.42;;;20.23;;
23594;SDS011;11975;47.674;9.472;2023-06-14T04:06:23;21.55;;;20.30;;
23594;SDS011;11975;47.674;9.472;2023-06-14T04:11:17;21.60;;;20.30;;
23594;SDS011;11975;47.674;9.472;2023-06-14T04:13:43;22.83;;;21.52;;
23594;SDS011;11975;47.674;9.472;2023-06-14T04:16:09;22.17;;;20.93;;
23594;SDS011;11975;47.674;9.472;2023-06-14T04:18:35;23.05;;;21.75;;
23594;SDS011;11975;47.674;9.472;2023-06-14T04:21:01;24.75;;;22.33;;
23594;SDS011;11975;47.674;9.472;2023-06-14T04:23:27;21.83;;;20.63;;
23594;SDS011;11975;47.674;9.472;2023-06-14T04:25:53;22.95;;;21.65;;
23594;SDS011;11975;47.674;9.472;2023-06-14T04:28:19;23.25;;;21.95;;
23594;SDS011;11975;47.674;9.472;2023-06-14T04:30:45;23.75;;;22.35;;
23594;SDS011;11975;47.674;9.472;2023-06-14T04:35:39;23.57;;;22.17;;
23594;SDS011;11975;47.674;9.472;2023-06-14T04:38:06;22.85;;;21.55;;
23594;SDS011;11975;47.674;9.472;2023-06-14T04:40:35;22.85;;;21.55;;
23594;SDS011;11975;47.674;9.472;2023-06-14T04:43:10;22.58;;;21.27;;
23594;SDS011;11975;47.674;9.472;2023-06-14T04:45:37;22.60;;;21.23;;
23594;SDS011;11975;47.674;9.472;2023-06-14T04:48:05;22.25;;;21.00;;
23594;SDS011;11975;47.674;9.472;2023-06-14T04:50:32;23.08;;;21.77;;
23594;SDS011;11975;47.674;9.472;2023-06-14T04:52:58;21.65;;;20.40;;
23594;SDS011;11975;47.674;9.472;2023-06-14T04:55:25;22.05;;;20.80;;
23594;SDS011;11975;47.674;9.472;2023-06-14T04:57:51;21.90;;;20.67;;
23594;SDS011;11975;47.674;9.472;2023-06-14T05:00:19;22.50;;;21.23;;
23594;SDS011;11975;47.674;9.472;2023-06-14T05:02:46;22.88;;;21.58;;
23594;SDS011;11975;47.674;9.472;2023-06-14T05:05:12;23.10;;;21.80;;
23594;SDS011;11975;47.674;9.472;2023-06-14T05:07:38;22.73;;;21.27;;
23594;SDS011;11975;47.674;9.472;2023-06-14T05:10:05;22.00;;;20.70;;
23594;SDS011;11975;47.674;9.472;2023-06-14T05:12:31;21.38;;;20.17;;
23594;SDS011;11975;47.674;9.472;2023-06-14T05:14:57;20.63;;;19.42;;
23594;SDS011;11975;47.674;9.472;2023-06-14T05:17:24;20.20;;;19.10;;
23594;SDS011;11975;47.674;9.472;2023-06-14T05:19:50;20.67;;;19.48;;
23594;SDS011;11975;47.674;9.472;2023-06-14T05:22:16;20.58;;;19.48;;
23594;SDS011;11975;47.674;9.472;2023-06-14T05:24:42;20.35;;;19.25;;
23594;SDS011;11975;47.674;9.472;2023-06-14T05:27:08;20.23;;;19.13;;
23594;SDS011;11975;47.674;9.472;2023-06-14T05:29:34;21.05;;;19.85;;
23594;SDS011;11975;47.674;9.472;2023-06-14T05:32:00;20.92;;;19.67;;
23594;SDS011;11975;47.674;9.472;2023-06-14T05:34:26;20.70;;;19.35;;
23594;SDS011;11975;47.674;9.472;2023-06-14T05:36:52;18.88;;;17.88;;
23594;SDS011;11975;47.674;9.472;2023-06-14T05:39:18;18.70;;;17.60;;
23594;SDS011;11975;47.674;9.472;2023-06-14T05:41:44;18.38;;;17.38;;
23594;SDS011;11975;47.674;9.472;2023-06-14T05:44:10;19.23;;;18.17;;
23594;SDS011;11975;47.674;9.472;2023-06-14T05:46:36;19.88;;;17.90;;
23594;SDS011;11975;47.674;9.472;2023-06-14T05:49:02;18.98;;;17.88;;
23594;SDS011;11975;47.674;9.472;2023-06-14T05:51:28;18.95;;;17.85;;
23594;SDS011;11975;47.674;9.472;2023-06-14T05:53:54;19.08;;;17.98;;
23594;SDS011;11975;47.674;9.472;2023-06-14T05:56:20;18.65;;;17.65;;
23594;SDS011;11975;47.674;9.472;2023-06-14T05:58:46;19.05;;;17.95;;
23594;SDS011;11975;47.674;9.472;2023-06-14T06:01:13;19.30;;;18.20;;
23594;SDS011;11975;47.674;9.472;2023-06-14T06:03:39;20.50;;;19.20;;
23594;SDS011;11975;47.674;9.472;2023-06-14T06:06:05;19.80;;;18.60;;
23594;SDS011;11975;47.674;9.472;2023-06-14T06:08:31;19.60;;;18.50;;
23594;SDS011;11975;47.674;9.472;2023-06-14T06:10:58;21.05;;;19.52;;
23594;SDS011;11975;47.674;9.472;2023-06-14T06:13:23;19.00;;;17.90;;
23594;SDS011;11975;47.674;9.472;2023-06-14T06:15:49;19.50;;;18.40;;
23594;SDS011;11975;47.674;9.472;2023-06-14T06:18:16;18.90;;;17.80;;
23594;SDS011;11975;47.674;9.472;2023-06-14T06:20:42;18.73;;;17.73;;
23594;SDS011;11975;47.674;9.472;2023-06-14T06:23:09;19.60;;;18.50;;
23594;SDS011;11975;47.674;9.472;2023-06-14T06:25:35;18.83;;;17.73;;
23594;SDS011;11975;47.674;9.472;2023-06-14T06:28:01;18.65;;;17.63;;
23594;SDS011;11975;47.674;9.472;2023-06-14T06:30:27;18.65;;;17.63;;
23594;SDS011;11975;47.674;9.472;2023-06-14T06:32:53;19.50;;;18.40;;
23594;SDS011;11975;47.674;9.472;2023-06-14T06:35:21;19.20;;;18.00;;
23594;SDS011;11975;47.674;9.472;2023-06-14T06:37:47;18.83;;;17.77;;
23594;SDS011;11975;47.674;9.472;2023-06-14T06:40:13;19.05;;;17.95;;
23594;SDS011;11975;47.674;9.472;2023-06-14T06:42:39;18.98;;;17.90;;
23594;SDS011;11975;47.674;9.472;2023-06-14T06:45:05;18.40;;;17.40;;
23594;SDS011;11975;47.674;9.472;2023-06-14T06:47:31;18.90;;;17.83;;
23594;SDS011;11975;47.674;9.472;2023-06-14T06:49:57;19.55;;;18.45;;
23594;SDS011;11975;47.674;9.472;2023-06-14T06:52:23;19.83;;;18.73;;
23594;SDS011;11975;47.674;9.472;2023-06-14T06:54:49;18.20;;;17.20;;
23594;SDS011;11975;47.674;9.472;2023-06-14T06:57:16;18.70;;;17.70;;
23594;SDS011;11975;47.674;9.472;2023-06-14T06:59:42;19.30;;;18.20;;
23594;SDS011;11975;47.674;9.472;2023-06-14T07:02:08;19.20;;;18.10;;
23594;SDS011;11975;47.674;9.472;2023-06-14T07:04:34;18.40;;;17.30;;
23594;SDS011;11975;47.674;9.472;2023-06-14T07:07:00;18.00;;;17.00;;
23594;SDS011;11975;47.674;9.472;2023-06-14T07:09:26;17.33;;;16.35;;
23594;SDS011;11975;47.674;9.472;2023-06-14T07:11:52;17.63;;;16.63;;
23594;SDS011;11975;47.674;9.472;2023-06-14T07:14:18;18.52;;;17.52;;
23594;SDS011;11975;47.674;9.472;2023-06-14T07:16:44;18.63;;;17.60;;
23594;SDS011;11975;47.674;9.472;2023-06-14T07:19:10;19.02;;;17.92;;
23594;SDS011;11975;47.674;9.472;2023-06-14T07:21:36;18.60;;;17.60;;
23594;SDS011;11975;47.674;9.472;2023-06-14T07:24:05;18.13;;;17.13;;
23594;SDS011;11975;47.674;9.472;2023-06-14T07:26:34;17.38;;;16.40;;
23594;SDS011;11975;47.674;9.472;2023-06-14T07:29:01;17.88;;;16.88;;
23594;SDS011;11975;47.674;9.472;2023-06-14T07:31:27;17.52;;;16.52;;
23594;SDS011;11975;47.674;9.472;2023-06-14T07:33:53;17.88;;;16.77;;
23594;SDS011;11975;47.674;9.472;2023-06-14T07:36:19;17.50;;;16.50;;
23594;SDS011;11975;47.674;9.472;2023-06-14T07:38:45;17.13;;;16.23;;
23594;SDS011;11975;47.674;9.472;2023-06-14T07:41:11;19.88;;;18.77;;
23594;SDS011;11975;47.674;9.472;2023-06-14T07:43:37;20.95;;;19.75;;
23594;SDS011;11975;47.674;9.472;2023-06-14T07:46:03;19.53;;;18.43;;
23594;SDS011;11975;47.674;9.472;2023-06-14T07:48:30;18.25;;;17.25;;
23594;SDS011;11975;47.674;9.472;2023-06-14T07:50:56;17.40;;;16.40;;
23594;SDS011;11975;47.674;9.472;2023-06-14T07:53:22;17.27;;;16.35;;
23594;SDS011;11975;47.674;9.472;2023-06-14T07:55:47;17.80;;;16.70;;
23594;SDS011;11975;47.674;9.472;2023-06-14T07:58:14;16.95;;;15.85;;
23594;SDS011;11975;47.674;9.472;2023-06-14T08:00:40;17.90;;;16.90;;
23594;SDS011;11975;47.674;9.472;2023-06-14T08:03:06;17.25;;;16.30;;
23594;SDS011;11975;47.674;9.472;2023-06-14T08:05:32;16.67;;;15.77;;
23594;SDS011;11975;47.674;9.472;2023-06-14T08:07:58;17.00;;;16.10;;
23594;SDS011;11975;47.674;9.472;2023-06-14T08:10:24;16.77;;;15.88;;
23594;SDS011;11975;47.674;9.472;2023-06-14T08:12:50;17.00;;;16.00;;
23594;SDS011;11975;47.674;9.472;2023-06-14T08:15:16;16.73;;;15.73;;
23594;SDS011;11975;47.674;9.472;2023-06-14T08:17:43;17.25;;;16.30;;
23594;SDS011;11975;47.674;9.472;2023-06-14T08:20:09;17.30;;;16.30;;
23594;SDS011;11975;47.674;9.472;2023-06-14T08:22:36;17.02;;;16.02;;
23594;SDS011;11975;47.674;9.472;2023-06-14T08:25:03;15.48;;;14.63;;
23594;SDS011;11975;47.674;9.472;2023-06-14T08:27:30;17.00;;;16.00;;
23594;SDS011;11975;47.674;9.472;2023-06-14T08:29:56;16.23;;;15.32;;
23594;SDS011;11975;47.674;9.472;2023-06-14T08:32:22;17.67;;;16.67;;
23594;SDS011;11975;47.674;9.472;2023-06-14T08:34:48;16.60;;;15.50;;
23594;SDS011;11975;47.674;9.472;2023-06-14T08:37:14;15.32;;;14.52;;
23594;SDS011;11975;47.674;9.472;2023-06-14T08:39:40;15.68;;;14.77;;
23594;SDS011;11975;47.674;9.472;2023-06-14T08:42:07;17.30;;;16.30;;
23594;SDS011;11975;47.674;9.472;2023-06-14T08:44:33;17.55;;;16.50;;
23594;SDS011;11975;47.674;9.472;2023-06-14T08:46:59;17.05;;;16.15;;
23594;SDS011;11975;47.674;9.472;2023-06-14T08:51:57;18.33;;;17.33;;
23594;SDS011;11975;47.674;9.472;2023-06-14T08:54:25;18.02;;;17.02;;
23594;SDS011;11975;47.674;9.472;2023-06-14T08:56:53;18.08;;;17.08;;
23594;SDS011;11975;47.674;9.472;2023-06-14T08:59:25;18.08;;;17.08;;
23594;SDS011;11975;47.674;9.472;2023-06-14T09:01:52;18.63;;;17.52;;
23594;SDS011;11975;47.674;9.472;2023-06-14T09:04:20;18.33;;;17.27;;
23594;SDS011;11975;47.674;9.472;2023-06-14T09:06:47;18.00;;;17.00;;
23594;SDS011;11975;47.674;9.472;2023-06-14T09:09:19;18.40;;;17.40;;
23594;SDS011;11975;47.674;9.472;2023-06-14T09:11:46;18.38;;;17.05;;
23594;SDS011;11975;47.674;9.472;2023-06-14T09:14:12;18.87;;;17.87;;
23594;SDS011;11975;47.674;9.472;2023-06-14T09:16:38;19.13;;;18.03;;
23594;SDS011;11975;47.674;9.472;2023-06-14T09:19:04;18.67;;;17.63;;
23594;SDS011;11975;47.674;9.472;2023-06-14T09:21:31;18.85;;;17.83;;
23594;SDS011;11975;47.674;9.472;2023-06-14T09:23:59;19.40;;;18.25;;
23594;SDS011;11975;47.674;9.472;2023-06-14T09:26:26;18.92;;;17.80;;
23594;SDS011;11975;47.674;9.472;2023-06-14T09:28:53;18.20;;;17.20;;
23594;SDS011;11975;47.674;9.472;2023-06-14T09:31:20;18.33;;;17.33;;
23594;SDS011;11975;47.674;9.472;2023-06-14T09:36:32;17.85;;;16.85;;
23594;SDS011;11975;47.674;9.472;2023-06-14T09:38:58;17.83;;;16.83;;
23594;SDS011;11975;47.674;9.472;2023-06-14T09:44:05;18.67;;;17.67;;
23594;SDS011;11975;47.674;9.472;2023-06-14T09:46:32;18.52;;;17.52;;
23594;SDS011;11975;47.674;9.472;2023-06-14T09:48:59;17.73;;;16.73;;
23594;SDS011;11975;47.674;9.472;2023-06-14T09:51:26;18.70;;;17.70;;
23594;SDS011;11975;47.674;9.472;2023-06-14T09:53:52;17.83;;;16.83;;
23594;SDS011;11975;47.674;9.472;2023-06-14T09:56:22;17.40;;;16.42;;
23594;SDS011;11975;47.674;9.472;2023-06-14T09:58:54;17.42;;;16.45;;
23594;SDS011;11975;47.674;9.472;2023-06-14T10:01:24;16.98;;;16.08;;
23594;SDS011;11975;47.674;9.472;2023-06-14T10:03:57;16.90;;;16.00;;
23594;SDS011;11975;47.674;9.472;2023-06-14T10:06:36;18.02;;;16.83;;
23594;SDS011;11975;47.674;9.472;2023-06-14T10:09:03;16.95;;;16.00;;
23594;SDS011;11975;47.674;9.472;2023-06-14T10:11:30;17.55;;;16.55;;
23594;SDS011;11975;47.674;9.472;2023-06-14T10:13:56;18.08;;;17.08;;
23594;SDS011;11975;47.674;9.472;2023-06-14T10:16:24;17.42;;;16.42;;
23594;SDS011;11975;47.674;9.472;2023-06-14T10:21:25;16.43;;;15.53;;
23594;SDS011;11975;47.674;9.472;2023-06-14T10:24:15;17.23;;;16.27;;
23594;SDS011;11975;47.674;9.472;2023-06-14T10:26:54;16.83;;;15.93;;
23594;SDS011;11975;47.674;9.472;2023-06-14T10:29:20;17.83;;;16.83;;
23594;SDS011;11975;47.674;9.472;2023-06-14T10:31:47;18.00;;;17.00;;
23594;SDS011;11975;47.674;9.472;2023-06-14T10:39:38;17.58;;;16.58;;
23594;SDS011;11975;47.674;9.472;2023-06-14T10:42:07;17.63;;;16.63;;
23594;SDS011;11975;47.674;9.472;2023-06-14T10:47:04;17.83;;;16.83;;
23594;SDS011;11975;47.674;9.472;2023-06-14T10:52:12;18.33;;;17.33;;
23594;SDS011;11975;47.674;9.472;2023-06-14T10:57:41;16.83;;;15.93;;
23594;SDS011;11975;47.674;9.472;2023-06-14T11:00:09;18.00;;;17.00;;
23594;SDS011;11975;47.674;9.472;2023-06-14T11:05:25;17.10;;;16.20;;
23594;SDS011;11975;47.674;9.472;2023-06-14T11:10:40;16.85;;;15.95;;
23594;SDS011;11975;47.674;9.472;2023-06-14T11:13:07;18.10;;;17.10;;
23594;SDS011;11975;47.674;9.472;2023-06-14T11:15:35;18.40;;;17.33;;
23594;SDS011;11975;47.674;9.472;2023-06-14T11:18:05;18.45;;;17.40;;
23594;SDS011;11975;47.674;9.472;2023-06-14T11:20:37;18.17;;;17.17;;
23594;SDS011;11975;47.674;9.472;2023-06-14T11:23:03;18.07;;;17.07;;
23594;SDS011;11975;47.674;9.472;2023-06-14T11:25:30;18.08;;;16.88;;
23594;SDS011;11975;47.674;9.472;2023-06-14T11:27:56;17.73;;;16.73;;
23594;SDS011;11975;47.674;9.472;2023-06-14T11:30:23;16.70;;;15.80;;
23594;SDS011;11975;47.674;9.472;2023-06-14T11:32:51;18.65;;;17.65;;
23594;SDS011;11975;47.674;9.472;2023-06-14T11:37:43;17.58;;;16.58;;
23594;SDS011;11975;47.674;9.472;2023-06-14T11:40:13;18.05;;;17.05;;
23594;SDS011;11975;47.674;9.472;2023-06-14T11:42:40;18.20;;;17.20;;
23594;SDS011;11975;47.674;9.472;2023-06-14T11:45:10;18.25;;;17.25;;
23594;SDS011;11975;47.674;9.472;2023-06-14T11:47:38;17.73;;;16.73;;
23594;SDS011;11975;47.674;9.472;2023-06-14T11:50:05;17.45;;;16.45;;
23594;SDS011;11975;47.674;9.472;2023-06-14T11:52:36;18.25;;;17.25;;
23594;SDS011;11975;47.674;9.472;2023-06-14T11:55:03;18.30;;;17.30;;
23594;SDS011;11975;47.674;9.472;2023-06-14T11:57:36;18.40;;;17.17;;
23594;SDS011;11975;47.674;9.472;2023-06-14T12:00:08;17.95;;;16.95;;
23594;SDS011;11975;47.674;9.472;2023-06-14T12:02:39;18.80;;;17.52;;
23594;SDS011;11975;47.674;9.472;2023-06-14T12:05:06;17.30;;;16.30;;
23594;SDS011;11975;47.674;9.472;2023-06-14T12:07:38;17.73;;;16.73;;
23594;SDS011;11975;47.674;9.472;2023-06-14T12:10:07;17.85;;;16.85;;
23594;SDS011;11975;47.674;9.472;2023-06-14T12:12:36;18.13;;;17.13;;
23594;SDS011;11975;47.674;9.472;2023-06-14T12:15:04;16.88;;;15.98;;
23594;SDS011;11975;47.674;9.472;2023-06-14T12:17:32;17.58;;;16.58;;
23594;SDS011;11975;47.674;9.472;2023-06-14T12:20:05;16.75;;;15.85;;
23594;SDS011;11975;47.674;9.472;2023-06-14T12:22:46;16.67;;;15.77;;
23594;SDS011;11975;47.674;9.472;2023-06-14T12:25:26;18.05;;;17.05;;
23594;SDS011;11975;47.674;9.472;2023-06-14T12:27:54;18.05;;;17.02;;
23594;SDS011;11975;47.674;9.472;2023-06-14T12:30:20;18.10;;;16.75;;
23594;SDS011;11975;47.674;9.472;2023-06-14T12:32:46;17.83;;;16.83;;
23594;SDS011;11975;47.674;9.472;2023-06-14T12:35:12;17.93;;;16.93;;
23594;SDS011;11975;47.674;9.472;2023-06-14T12:37:38;17.20;;;16.27;;
23594;SDS011;11975;47.674;9.472;2023-06-14T12:40:04;17.97;;;16.90;;
23594;SDS011;11975;47.674;9.472;2023-06-14T12:42:32;16.80;;;15.90;;
23594;SDS011;11975;47.674;9.472;2023-06-14T12:44:59;17.73;;;16.73;;
23594;SDS011;11975;47.674;9.472;2023-06-14T12:47:25;18.10;;;17.10;;
23594;SDS011;11975;47.674;9.472;2023-06-14T12:49:51;17.77;;;16.77;;
23594;SDS011;11975;47.674;9.472;2023-06-14T12:52:17;17.63;;;16.63;;
23594;SDS011;11975;47.674;9.472;2023-06-14T12:54:43;16.63;;;15.73;;
23594;SDS011;11975;47.674;9.472;2023-06-14T12:57:09;17.90;;;16.90;;
23594;SDS011;11975;47.674;9.472;2023-06-14T12:59:35;17.80;;;16.80;;
23594;SDS011;11975;47.674;9.472;2023-06-14T13:02:14;16.93;;;16.03;;
23594;SDS011;11975;47.674;9.472;2023-06-14T13:04:41;17.35;;;16.42;;
23594;SDS011;11975;47.674;9.472;2023-06-14T13:07:07;18.23;;;17.23;;
23594;SDS011;11975;47.674;9.472;2023-06-14T13:09:33;16.83;;;15.87;;
23594;SDS011;11975;47.674;9.472;2023-06-14T13:11:59;17.73;;;16.73;;
23594;SDS011;11975;47.674;9.472;2023-06-14T13:14:24;17.63;;;16.63;;
23594;SDS011;11975;47.674;9.472;2023-06-14T13:16:50;17.83;;;16.83;;
23594;SDS011;11975;47.674;9.472;2023-06-14T13:19:16;18.77;;;17.67;;
23594;SDS011;11975;47.674;9.472;2023-06-14T13:21:42;17.70;;;16.70;;
23594;SDS011;11975;47.674;9.472;2023-06-14T13:24:08;16.87;;;15.97;;
23594;SDS011;11975;47.674;9.472;2023-06-14T13:26:34;18.03;;;17.03;;
23594;SDS011;11975;47.674;9.472;2023-06-14T13:29:00;17.75;;;16.75;;
23594;SDS011;11975;47.674;9.472;2023-06-14T13:31:26;17.57;;;16.57;;
23594;SDS011;11975;47.674;9.472;2023-06-14T13:33:52;17.43;;;16.47;;
23594;SDS011;11975;47.674;9.472;2023-06-14T13:36:18;17.87;;;16.87;;
23594;SDS011;11975;47.674;9.472;2023-06-14T13:38:44;17.00;;;16.00;;
23594;SDS011;11975;47.674;9.472;2023-06-14T13:41:10;18.47;;;17.37;;
23594;SDS011;11975;47.674;9.472;2023-06-14T13:43:36;16.77;;;15.87;;
23594;SDS011;11975;47.674;9.472;2023-06-14T13:46:02;17.97;;;16.97;;
23594;SDS011;11975;47.674;9.472;2023-06-14T13:48:28;18.33;;;17.33;;
23594;SDS011;11975;47.674;9.472;2023-06-14T13:50:54;17.08;;;16.13;;
23594;SDS011;11975;47.674;9.472;2023-06-14T13:53:20;17.93;;;16.93;;
23594;SDS011;11975;47.674;9.472;2023-06-14T13:55:46;17.60;;;16.60;;
23594;SDS011;11975;47.674;9.472;2023-06-14T13:58:13;17.38;;;16.40;;
23594;SDS011;11975;47.674;9.472;2023-06-14T14:00:40;17.58;;;16.58;;
23594;SDS011;11975;47.674;9.472;2023-06-14T14:03:06;18.37;;;17.27;;
23594;SDS011;11975;47.674;9.472;2023-06-14T14:05:32;17.23;;;16.30;;
23594;SDS011;11975;47.674;9.472;2023-06-14T14:07:58;17.07;;;16.17;;
23594;SDS011;11975;47.674;9.472;2023-06-14T14:10:24;17.02;;;16.10;;
23594;SDS011;11975;47.674;9.472;2023-06-14T14:12:51;17.55;;;16.55;;
23594;SDS011;11975;47.674;9.472;2023-06-14T14:15:18;16.67;;;15.77;;
23594;SDS011;11975;47.674;9.472;2023-06-14T14:17:44;16.85;;;15.88;;
23594;SDS011;11975;47.674;9.472;2023-06-14T14:20:10;18.23;;;16.90;;
23594;SDS011;11975;47.674;9.472;2023-06-14T14:22:41;17.92;;;16.90;;
23594;SDS011;11975;47.674;9.472;2023-06-14T14:25:08;17.67;;;16.67;;
23594;SDS011;11975;47.674;9.472;2023-06-14T14:27:34;17.70;;;16.70;;
23594;SDS011;11975;47.674;9.472;2023-06-14T14:30:01;16.25;;;15.35;;
23594;SDS011;11975;47.674;9.472;2023-06-14T14:32:27;17.80;;;16.80;;
23594;SDS011;11975;47.674;9.472;2023-06-14T14:34:53;17.37;;;16.40;;
23594;SDS011;11975;47.674;9.472;2023-06-14T14:37:19;17.37;;;16.40;;
23594;SDS011;11975;47.674;9.472;2023-06-14T14:39:45;16.93;;;16.03;;
23594;SDS011;11975;47.674;9.472;2023-06-14T14:42:11;17.80;;;16.80;;
23594;SDS011;11975;47.674;9.472;2023-06-14T14:44:38;17.58;;;16.58;;
23594;SDS011;11975;47.674;9.472;2023-06-14T14:47:04;17.65;;;16.67;;
23594;SDS011;11975;47.674;9.472;2023-06-14T14:49:31;18.02;;;16.95;;
23594;SDS011;11975;47.674;9.472;2023-06-14T14:51:57;17.73;;;16.73;;
23594;SDS011;11975;47.674;9.472;2023-06-14T14:54:23;17.37;;;16.37;;
23594;SDS011;11975;47.674;9.472;2023-06-14T14:56:51;16.73;;;15.82;;
23594;SDS011;11975;47.674;9.472;2023-06-14T14:59:17;16.77;;;15.88;;
23594;SDS011;11975;47.674;9.472;2023-06-14T15:04:09;17.48;;;16.48;;
23594;SDS011;11975;47.674;9.472;2023-06-14T15:06:35;17.67;;;16.67;;